sensor_id;sensor_type;location;lat;lon;timestamp;P1;durP1;ratioP1;P2;durP2;ratioP2
46216;SDS011;47258;59.424;13.482;2023-05-29T00:01:46;3.97;;;0.43;;
46216;SDS011;47258;59.424;13.482;2023-05-29T00:04:16;8.23;;;0.50;;
46216;SDS011;47258;59.424;13.482;2023-05-29T00:06:47;30.08;;;1.05;;
46216;SDS011;47258;59.424;13.482;2023-05-29T00:09:17;16.85;;;0.80;;
46216;SDS011;47258;59.424;13.482;2023-05-29T00:11:46;8.85;;;0.52;;
46216;SDS011;47258;59.424;13.482;2023-05-29T00:14:18;11.38;;;1.80;;
46216;SDS011;47258;59.424;13.482;2023-05-29T00:16:47;9.52;;;0.63;;
46216;SDS011;47258;59.424;13.482;2023-05-29T00:19:17;8.10;;;1.20;;
46216;SDS011;47258;59.424;13.482;2023-05-29T00:21:46;2.42;;;0.38;;
46216;SDS011;47258;59.424;13.482;2023-05-29T00:24:15;1.33;;;0.70;;
46216;SDS011;47258;59.424;13.482;2023-05-29T00:26:43;8.38;;;0.50;;
46216;SDS011;47258;59.424;13.482;2023-05-29T00:29:16;3.45;;;0.20;;
46216;SDS011;47258;59.424;13.482;2023-05-29T00:31:48;5.05;;;0.30;;
46216;SDS011;47258;59.424;13.482;2023-05-29T00:34:18;2.08;;;0.10;;
46216;SDS011;47258;59.424;13.482;2023-05-29T00:36:48;0.43;;;0.38;;
46216;SDS011;47258;59.424;13.482;2023-05-29T00:39:17;3.83;;;0.22;;
46216;SDS011;47258;59.424;13.482;2023-05-29T00:41:45;2.10;;;0.30;;
46216;SDS011;47258;59.424;13.482;2023-05-29T00:44:19;2.30;;;0.20;;
46216;SDS011;47258;59.424;13.482;2023-05-29T00:46:47;1.95;;;0.13;;
46216;SDS011;47258;59.424;13.482;2023-05-29T00:49:19;1.75;;;0.20;;
46216;SDS011;47258;59.424;13.482;2023-05-29T00:51:52;0.10;;;0.10;;
46216;SDS011;47258;59.424;13.482;2023-05-29T00:54:26;0.35;;;0.20;;
46216;SDS011;47258;59.424;13.482;2023-05-29T00:56:56;0.45;;;0.10;;
46216;SDS011;47258;59.424;13.482;2023-05-29T00:59:29;0.20;;;0.10;;
46216;SDS011;47258;59.424;13.482;2023-05-29T01:01:59;2.95;;;0.10;;
46216;SDS011;47258;59.424;13.482;2023-05-29T01:04:27;0.25;;;0.25;;
46216;SDS011;47258;59.424;13.482;2023-05-29T01:06:59;0.00;;;0.00;;
46216;SDS011;47258;59.424;13.482;2023-05-29T01:09:28;1.35;;;0.10;;
46216;SDS011;47258;59.424;13.482;2023-05-29T01:12:02;0.10;;;0.00;;
46216;SDS011;47258;59.424;13.482;2023-05-29T01:14:44;0.63;;;0.20;;
46216;SDS011;47258;59.424;13.482;2023-05-29T01:17:19;0.08;;;0.08;;
46216;SDS011;47258;59.424;13.482;2023-05-29T01:23:01;4.47;;;0.20;;
46216;SDS011;47258;59.424;13.482;2023-05-29T01:25:42;2.42;;;0.10;;
46216;SDS011;47258;59.424;13.482;2023-05-29T01:28:26;0.50;;;0.13;;
46216;SDS011;47258;59.424;13.482;2023-05-29T01:30:59;0.10;;;0.10;;
46216;SDS011;47258;59.424;13.482;2023-05-29T01:33:29;2.70;;;0.20;;
46216;SDS011;47258;59.424;13.482;2023-05-29T01:35:59;2.92;;;0.05;;
46216;SDS011;47258;59.424;13.482;2023-05-29T01:38:28;0.90;;;0.17;;
46216;SDS011;47258;59.424;13.482;2023-05-29T01:40:59;1.20;;;0.17;;
46216;SDS011;47258;59.424;13.482;2023-05-29T01:43:32;0.38;;;0.20;;
46216;SDS011;47258;59.424;13.482;2023-05-29T01:46:04;1.38;;;0.20;;
46216;SDS011;47258;59.424;13.482;2023-05-29T01:48:34;0.35;;;0.30;;
46216;SDS011;47258;59.424;13.482;2023-05-29T01:51:04;0.40;;;0.10;;
46216;SDS011;47258;59.424;13.482;2023-05-29T01:53:33;0.10;;;0.10;;
46216;SDS011;47258;59.424;13.482;2023-05-29T01:56:01;0.17;;;0.13;;
46216;SDS011;47258;59.424;13.482;2023-05-29T01:58:29;2.65;;;0.52;;
46216;SDS011;47258;59.424;13.482;2023-05-29T02:01:01;0.00;;;0.00;;
46216;SDS011;47258;59.424;13.482;2023-05-29T02:03:31;1.08;;;0.10;;
46216;SDS011;47258;59.424;13.482;2023-05-29T02:06:01;0.17;;;0.10;;
46216;SDS011;47258;59.424;13.482;2023-05-29T02:08:33;0.30;;;0.25;;
46216;SDS011;47258;59.424;13.482;2023-05-29T02:11:01;0.10;;;0.10;;
46216;SDS011;47258;59.424;13.482;2023-05-29T02:13:34;0.05;;;0.05;;
46216;SDS011;47258;59.424;13.482;2023-05-29T02:16:02;0.10;;;0.10;;
46216;SDS011;47258;59.424;13.482;2023-05-29T02:18:31;0.28;;;0.28;;
46216;SDS011;47258;59.424;13.482;2023-05-29T02:21:04;0.57;;;0.20;;
46216;SDS011;47258;59.424;13.482;2023-05-29T02:23:32;0.20;;;0.20;;
46216;SDS011;47258;59.424;13.482;2023-05-29T02:26:00;0.10;;;0.10;;
46216;SDS011;47258;59.424;13.482;2023-05-29T02:28:28;12.00;;;1.13;;
46216;SDS011;47258;59.424;13.482;2023-05-29T02:30:57;4.85;;;0.20;;
46216;SDS011;47258;59.424;13.482;2023-05-29T02:33:25;13.90;;;0.43;;
46216;SDS011;47258;59.424;13.482;2023-05-29T02:35:56;3.67;;;0.28;;
46216;SDS011;47258;59.424;13.482;2023-05-29T02:38:25;4.60;;;0.30;;
46216;SDS011;47258;59.424;13.482;2023-05-29T02:40:55;1.77;;;0.20;;
46216;SDS011;47258;59.424;13.482;2023-05-29T02:43:25;4.18;;;0.40;;
46216;SDS011;47258;59.424;13.482;2023-05-29T02:45:56;3.40;;;0.20;;
46216;SDS011;47258;59.424;13.482;2023-05-29T02:48:26;5.65;;;0.20;;
46216;SDS011;47258;59.424;13.482;2023-05-29T02:50:54;6.70;;;0.50;;
46216;SDS011;47258;59.424;13.482;2023-05-29T02:53:25;3.50;;;0.30;;
46216;SDS011;47258;59.424;13.482;2023-05-29T02:55:53;0.43;;;0.20;;
46216;SDS011;47258;59.424;13.482;2023-05-29T02:58:21;2.38;;;0.22;;
46216;SDS011;47258;59.424;13.482;2023-05-29T03:00:49;1.13;;;0.45;;
46216;SDS011;47258;59.424;13.482;2023-05-29T03:03:18;1.35;;;0.47;;
46216;SDS011;47258;59.424;13.482;2023-05-29T03:05:46;0.52;;;0.20;;
46216;SDS011;47258;59.424;13.482;2023-05-29T03:08:14;1.50;;;0.50;;
46216;SDS011;47258;59.424;13.482;2023-05-29T03:10:43;2.50;;;0.30;;
46216;SDS011;47258;59.424;13.482;2023-05-29T03:13:13;1.95;;;0.20;;
46216;SDS011;47258;59.424;13.482;2023-05-29T03:15:41;1.80;;;0.20;;
46216;SDS011;47258;59.424;13.482;2023-05-29T03:18:10;0.68;;;0.20;;
46216;SDS011;47258;59.424;13.482;2023-05-29T03:20:39;0.40;;;0.20;;
46216;SDS011;47258;59.424;13.482;2023-05-29T03:23:07;3.63;;;0.73;;
46216;SDS011;47258;59.424;13.482;2023-05-29T03:25:34;2.75;;;0.32;;
46216;SDS011;47258;59.424;13.482;2023-05-29T03:28:03;0.10;;;0.10;;
46216;SDS011;47258;59.424;13.482;2023-05-29T03:30:32;0.65;;;0.45;;
46216;SDS011;47258;59.424;13.482;2023-05-29T03:33:00;0.65;;;0.28;;
46216;SDS011;47258;59.424;13.482;2023-05-29T03:35:29;2.05;;;0.10;;
46216;SDS011;47258;59.424;13.482;2023-05-29T03:38:01;0.20;;;0.10;;
46216;SDS011;47258;59.424;13.482;2023-05-29T03:40:30;0.73;;;0.20;;
46216;SDS011;47258;59.424;13.482;2023-05-29T03:42:58;0.10;;;0.10;;
46216;SDS011;47258;59.424;13.482;2023-05-29T03:45:26;0.10;;;0.05;;
46216;SDS011;47258;59.424;13.482;2023-05-29T03:48:00;4.65;;;0.40;;
46216;SDS011;47258;59.424;13.482;2023-05-29T03:50:27;0.30;;;0.22;;
46216;SDS011;47258;59.424;13.482;2023-05-29T03:52:55;1.98;;;0.35;;
46216;SDS011;47258;59.424;13.482;2023-05-29T03:55:27;11.80;;;0.77;;
46216;SDS011;47258;59.424;13.482;2023-05-29T03:57:57;3.05;;;0.20;;
46216;SDS011;47258;59.424;13.482;2023-05-29T04:00:27;1.77;;;0.22;;
46216;SDS011;47258;59.424;13.482;2023-05-29T04:02:55;0.30;;;0.28;;
46216;SDS011;47258;59.424;13.482;2023-05-29T04:05:22;1.08;;;0.30;;
46216;SDS011;47258;59.424;13.482;2023-05-29T04:07:51;0.30;;;0.13;;
46216;SDS011;47258;59.424;13.482;2023-05-29T04:10:21;0.15;;;0.15;;
46216;SDS011;47258;59.424;13.482;2023-05-29T04:12:50;0.32;;;0.22;;
46216;SDS011;47258;59.424;13.482;2023-05-29T04:17:49;0.10;;;0.10;;
46216;SDS011;47258;59.424;13.482;2023-05-29T04:20:18;0.30;;;0.10;;
46216;SDS011;47258;59.424;13.482;2023-05-29T04:22:46;1.27;;;0.20;;
46216;SDS011;47258;59.424;13.482;2023-05-29T04:25:15;0.35;;;0.30;;
46216;SDS011;47258;59.424;13.482;2023-05-29T04:27:43;0.50;;;0.28;;
46216;SDS011;47258;59.424;13.482;2023-05-29T04:30:18;1.08;;;0.25;;
46216;SDS011;47258;59.424;13.482;2023-05-29T04:32:46;0.50;;;0.20;;
46216;SDS011;47258;59.424;13.482;2023-05-29T04:35:14;0.10;;;0.10;;
46216;SDS011;47258;59.424;13.482;2023-05-29T04:37:43;0.20;;;0.10;;
46216;SDS011;47258;59.424;13.482;2023-05-29T04:40:15;1.27;;;0.40;;
46216;SDS011;47258;59.424;13.482;2023-05-29T04:42:46;0.05;;;0.05;;
46216;SDS011;47258;59.424;13.482;2023-05-29T04:45:15;0.60;;;0.40;;
46216;SDS011;47258;59.424;13.482;2023-05-29T04:47:46;0.47;;;0.10;;
46216;SDS011;47258;59.424;13.482;2023-05-29T04:50:17;0.40;;;0.37;;
46216;SDS011;47258;59.424;13.482;2023-05-29T04:52:44;0.52;;;0.10;;
46216;SDS011;47258;59.424;13.482;2023-05-29T04:55:12;10.32;;;0.90;;
46216;SDS011;47258;59.424;13.482;2023-05-29T04:57:41;0.10;;;0.10;;
46216;SDS011;47258;59.424;13.482;2023-05-29T05:00:10;6.82;;;0.45;;
46216;SDS011;47258;59.424;13.482;2023-05-29T05:02:42;1.92;;;0.35;;
46216;SDS011;47258;59.424;13.482;2023-05-29T05:05:11;1.77;;;0.25;;
46216;SDS011;47258;59.424;13.482;2023-05-29T05:07:39;5.93;;;0.98;;
46216;SDS011;47258;59.424;13.482;2023-05-29T05:10:07;0.70;;;0.52;;
46216;SDS011;47258;59.424;13.482;2023-05-29T05:12:39;3.13;;;0.50;;
46216;SDS011;47258;59.424;13.482;2023-05-29T05:15:07;0.30;;;0.15;;
46216;SDS011;47258;59.424;13.482;2023-05-29T05:17:36;4.63;;;0.73;;
46216;SDS011;47258;59.424;13.482;2023-05-29T05:20:05;3.00;;;0.20;;
46216;SDS011;47258;59.424;13.482;2023-05-29T05:22:35;0.52;;;0.35;;
46216;SDS011;47258;59.424;13.482;2023-05-29T05:25:06;0.55;;;0.43;;
46216;SDS011;47258;59.424;13.482;2023-05-29T05:27:35;5.80;;;0.57;;
46216;SDS011;47258;59.424;13.482;2023-05-29T05:30:04;1.55;;;0.50;;
46216;SDS011;47258;59.424;13.482;2023-05-29T05:32:33;0.03;;;0.03;;
46216;SDS011;47258;59.424;13.482;2023-05-29T05:35:01;3.90;;;0.38;;
46216;SDS011;47258;59.424;13.482;2023-05-29T05:37:31;1.60;;;0.83;;
46216;SDS011;47258;59.424;13.482;2023-05-29T05:40:00;1.38;;;0.20;;
46216;SDS011;47258;59.424;13.482;2023-05-29T05:42:28;1.55;;;0.30;;
46216;SDS011;47258;59.424;13.482;2023-05-29T05:44:56;1.98;;;0.20;;
46216;SDS011;47258;59.424;13.482;2023-05-29T05:47:23;0.10;;;0.10;;
46216;SDS011;47258;59.424;13.482;2023-05-29T05:49:52;0.82;;;0.20;;
46216;SDS011;47258;59.424;13.482;2023-05-29T05:52:23;2.28;;;0.22;;
46216;SDS011;47258;59.424;13.482;2023-05-29T05:54:56;0.60;;;0.40;;
46216;SDS011;47258;59.424;13.482;2023-05-29T05:57:26;2.65;;;0.90;;
46216;SDS011;47258;59.424;13.482;2023-05-29T05:59:55;0.47;;;0.20;;
46216;SDS011;47258;59.424;13.482;2023-05-29T06:02:24;2.40;;;0.32;;
46216;SDS011;47258;59.424;13.482;2023-05-29T06:04:53;0.88;;;0.30;;
46216;SDS011;47258;59.424;13.482;2023-05-29T06:07:24;1.38;;;0.20;;
46216;SDS011;47258;59.424;13.482;2023-05-29T06:09:51;1.98;;;0.45;;
46216;SDS011;47258;59.424;13.482;2023-05-29T06:12:20;2.10;;;0.40;;
46216;SDS011;47258;59.424;13.482;2023-05-29T06:14:50;1.15;;;0.43;;
46216;SDS011;47258;59.424;13.482;2023-05-29T06:17:18;5.00;;;0.40;;
46216;SDS011;47258;59.424;13.482;2023-05-29T06:19:46;1.02;;;0.30;;
46216;SDS011;47258;59.424;13.482;2023-05-29T06:22:16;0.17;;;0.10;;
46216;SDS011;47258;59.424;13.482;2023-05-29T06:24:47;0.75;;;0.30;;
46216;SDS011;47258;59.424;13.482;2023-05-29T06:27:16;0.65;;;0.25;;
46216;SDS011;47258;59.424;13.482;2023-05-29T06:29:48;14.23;;;1.10;;
46216;SDS011;47258;59.424;13.482;2023-05-29T06:32:22;13.63;;;0.95;;
46216;SDS011;47258;59.424;13.482;2023-05-29T06:34:51;2.10;;;0.50;;
46216;SDS011;47258;59.424;13.482;2023-05-29T06:37:21;3.15;;;0.30;;
46216;SDS011;47258;59.424;13.482;2023-05-29T06:39:51;0.50;;;0.47;;
46216;SDS011;47258;59.424;13.482;2023-05-29T06:42:21;2.13;;;0.98;;
46216;SDS011;47258;59.424;13.482;2023-05-29T06:44:53;2.35;;;0.30;;
46216;SDS011;47258;59.424;13.482;2023-05-29T06:47:20;19.40;;;1.77;;
46216;SDS011;47258;59.424;13.482;2023-05-29T06:49:49;1.10;;;0.40;;
46216;SDS011;47258;59.424;13.482;2023-05-29T06:52:20;0.52;;;0.30;;
46216;SDS011;47258;59.424;13.482;2023-05-29T06:54:48;0.22;;;0.20;;
46216;SDS011;47258;59.424;13.482;2023-05-29T06:57:17;1.55;;;0.30;;
46216;SDS011;47258;59.424;13.482;2023-05-29T06:59:45;7.30;;;0.95;;
46216;SDS011;47258;59.424;13.482;2023-05-29T07:02:14;13.30;;;0.93;;
46216;SDS011;47258;59.424;13.482;2023-05-29T07:04:41;10.68;;;0.75;;
46216;SDS011;47258;59.424;13.482;2023-05-29T07:07:09;6.35;;;1.30;;
46216;SDS011;47258;59.424;13.482;2023-05-29T07:09:39;7.35;;;0.70;;
46216;SDS011;47258;59.424;13.482;2023-05-29T07:12:08;6.63;;;1.55;;
46216;SDS011;47258;59.424;13.482;2023-05-29T07:14:39;1.42;;;0.60;;
46216;SDS011;47258;59.424;13.482;2023-05-29T07:17:07;2.95;;;0.77;;
46216;SDS011;47258;59.424;13.482;2023-05-29T07:19:37;6.47;;;0.73;;
46216;SDS011;47258;59.424;13.482;2023-05-29T07:22:09;6.55;;;0.90;;
46216;SDS011;47258;59.424;13.482;2023-05-29T07:24:36;0.68;;;0.45;;
46216;SDS011;47258;59.424;13.482;2023-05-29T07:27:04;1.75;;;0.50;;
46216;SDS011;47258;59.424;13.482;2023-05-29T07:29:32;2.75;;;0.60;;
46216;SDS011;47258;59.424;13.482;2023-05-29T07:31:59;0.88;;;0.35;;
46216;SDS011;47258;59.424;13.482;2023-05-29T07:34:27;1.02;;;0.60;;
46216;SDS011;47258;59.424;13.482;2023-05-29T07:36:58;7.18;;;1.30;;
46216;SDS011;47258;59.424;13.482;2023-05-29T07:39:28;7.93;;;0.98;;
46216;SDS011;47258;59.424;13.482;2023-05-29T07:41:56;2.42;;;0.77;;
46216;SDS011;47258;59.424;13.482;2023-05-29T07:44:24;2.22;;;0.45;;
46216;SDS011;47258;59.424;13.482;2023-05-29T07:46:57;3.17;;;0.50;;
46216;SDS011;47258;59.424;13.482;2023-05-29T07:49:24;5.40;;;0.90;;
46216;SDS011;47258;59.424;13.482;2023-05-29T07:51:54;1.60;;;0.70;;
46216;SDS011;47258;59.424;13.482;2023-05-29T07:54:24;2.72;;;1.08;;
46216;SDS011;47258;59.424;13.482;2023-05-29T07:56:52;0.73;;;0.70;;
46216;SDS011;47258;59.424;13.482;2023-05-29T07:59:21;0.63;;;0.60;;
46216;SDS011;47258;59.424;13.482;2023-05-29T08:01:50;2.22;;;0.90;;
46216;SDS011;47258;59.424;13.482;2023-05-29T08:04:19;2.70;;;0.70;;
46216;SDS011;47258;59.424;13.482;2023-05-29T08:06:47;4.13;;;0.45;;
46216;SDS011;47258;59.424;13.482;2023-05-29T08:09:17;5.55;;;1.50;;
46216;SDS011;47258;59.424;13.482;2023-05-29T08:11:49;4.85;;;0.35;;
46216;SDS011;47258;59.424;13.482;2023-05-29T08:14:19;9.63;;;1.55;;
46216;SDS011;47258;59.424;13.482;2023-05-29T08:16:50;5.38;;;1.33;;
46216;SDS011;47258;59.424;13.482;2023-05-29T08:19:21;4.55;;;1.05;;
46216;SDS011;47258;59.424;13.482;2023-05-29T08:21:50;1.20;;;1.05;;
46216;SDS011;47258;59.424;13.482;2023-05-29T08:24:20;1.35;;;0.80;;
46216;SDS011;47258;59.424;13.482;2023-05-29T08:26:50;3.03;;;0.57;;
46216;SDS011;47258;59.424;13.482;2023-05-29T08:29:19;1.20;;;0.70;;
46216;SDS011;47258;59.424;13.482;2023-05-29T08:31:48;4.80;;;0.70;;
46216;SDS011;47258;59.424;13.482;2023-05-29T08:34:18;2.20;;;0.90;;
46216;SDS011;47258;59.424;13.482;2023-05-29T08:36:46;4.93;;;0.85;;
46216;SDS011;47258;59.424;13.482;2023-05-29T08:39:14;0.80;;;0.50;;
46216;SDS011;47258;59.424;13.482;2023-05-29T08:41:45;0.82;;;0.63;;
46216;SDS011;47258;59.424;13.482;2023-05-29T08:44:22;2.47;;;0.47;;
46216;SDS011;47258;59.424;13.482;2023-05-29T08:46:51;2.63;;;0.63;;
46216;SDS011;47258;59.424;13.482;2023-05-29T08:49:25;2.70;;;0.60;;
46216;SDS011;47258;59.424;13.482;2023-05-29T08:52:05;1.92;;;0.60;;
46216;SDS011;47258;59.424;13.482;2023-05-29T08:54:39;4.57;;;0.80;;
46216;SDS011;47258;59.424;13.482;2023-05-29T08:57:09;1.58;;;0.40;;
46216;SDS011;47258;59.424;13.482;2023-05-29T08:59:42;2.22;;;0.75;;
46216;SDS011;47258;59.424;13.482;2023-05-29T09:02:11;8.48;;;1.52;;
46216;SDS011;47258;59.424;13.482;2023-05-29T09:04:41;18.30;;;2.20;;
46216;SDS011;47258;59.424;13.482;2023-05-29T09:07:10;15.40;;;1.38;;
46216;SDS011;47258;59.424;13.482;2023-05-29T09:09:45;3.58;;;0.52;;
46216;SDS011;47258;59.424;13.482;2023-05-29T09:12:15;0.82;;;0.60;;
46216;SDS011;47258;59.424;13.482;2023-05-29T09:14:44;9.07;;;1.45;;
46216;SDS011;47258;59.424;13.482;2023-05-29T09:17:15;1.63;;;0.70;;
46216;SDS011;47258;59.424;13.482;2023-05-29T09:19:45;0.75;;;0.47;;
46216;SDS011;47258;59.424;13.482;2023-05-29T09:22:16;2.25;;;0.52;;
46216;SDS011;47258;59.424;13.482;2023-05-29T09:24:46;2.28;;;0.75;;
46216;SDS011;47258;59.424;13.482;2023-05-29T09:27:18;1.85;;;0.60;;
46216;SDS011;47258;59.424;13.482;2023-05-29T09:29:46;3.80;;;1.67;;
46216;SDS011;47258;59.424;13.482;2023-05-29T09:32:16;2.63;;;0.93;;
46216;SDS011;47258;59.424;13.482;2023-05-29T09:34:49;1.55;;;0.70;;
46216;SDS011;47258;59.424;13.482;2023-05-29T09:37:21;4.22;;;1.35;;
46216;SDS011;47258;59.424;13.482;2023-05-29T09:39:49;4.18;;;1.70;;
46216;SDS011;47258;59.424;13.482;2023-05-29T09:42:26;7.35;;;2.10;;
46216;SDS011;47258;59.424;13.482;2023-05-29T09:44:54;8.50;;;2.33;;
46216;SDS011;47258;59.424;13.482;2023-05-29T09:47:22;8.90;;;1.77;;
46216;SDS011;47258;59.424;13.482;2023-05-29T09:50:19;59.60;;;12.52;;
46216;SDS011;47258;59.424;13.482;2023-05-29T09:53:00;273.55;;;74.65;;
46216;SDS011;47258;59.424;13.482;2023-05-29T09:55:53;484.10;;;148.77;;
46216;SDS011;47258;59.424;13.482;2023-05-29T09:58:41;546.85;;;186.68;;
46216;SDS011;47258;59.424;13.482;2023-05-29T10:01:25;629.97;;;234.98;;
46216;SDS011;47258;59.424;13.482;2023-05-29T10:04:11;727.45;;;288.60;;
46216;SDS011;47258;59.424;13.482;2023-05-29T10:06:55;779.22;;;321.10;;
46216;SDS011;47258;59.424;13.482;2023-05-29T10:09:31;822.25;;;347.77;;
46216;SDS011;47258;59.424;13.482;2023-05-29T10:12:19;828.40;;;343.90;;
46216;SDS011;47258;59.424;13.482;2023-05-29T10:15:02;771.55;;;338.15;;
46216;SDS011;47258;59.424;13.482;2023-05-29T10:17:53;781.90;;;326.73;;
46216;SDS011;47258;59.424;13.482;2023-05-29T10:20:39;745.55;;;314.70;;
46216;SDS011;47258;59.424;13.482;2023-05-29T10:23:20;724.17;;;306.42;;
46216;SDS011;47258;59.424;13.482;2023-05-29T10:26:06;718.45;;;299.33;;
46216;SDS011;47258;59.424;13.482;2023-05-29T10:28:46;696.15;;;302.88;;
46216;SDS011;47258;59.424;13.482;2023-05-29T10:31:48;674.88;;;285.10;;
46216;SDS011;47258;59.424;13.482;2023-05-29T10:34:47;657.38;;;274.65;;
46216;SDS011;47258;59.424;13.482;2023-05-29T10:37:33;618.92;;;255.77;;
46216;SDS011;47258;59.424;13.482;2023-05-29T10:40:16;596.95;;;246.10;;
46216;SDS011;47258;59.424;13.482;2023-05-29T10:43:02;588.03;;;241.00;;
46216;SDS011;47258;59.424;13.482;2023-05-29T10:45:50;554.53;;;221.98;;
46216;SDS011;47258;59.424;13.482;2023-05-29T10:48:42;548.03;;;221.40;;
46216;SDS011;47258;59.424;13.482;2023-05-29T10:51:29;546.67;;;222.57;;
46216;SDS011;47258;59.424;13.482;2023-05-29T10:54:08;519.55;;;209.65;;
46216;SDS011;47258;59.424;13.482;2023-05-29T10:56:51;522.03;;;204.30;;
46216;SDS011;47258;59.424;13.482;2023-05-29T10:59:28;495.98;;;199.25;;
46216;SDS011;47258;59.424;13.482;2023-05-29T11:02:18;489.52;;;195.55;;
46216;SDS011;47258;59.424;13.482;2023-05-29T11:05:16;483.08;;;188.20;;
46216;SDS011;47258;59.424;13.482;2023-05-29T11:08:03;471.63;;;182.43;;
46216;SDS011;47258;59.424;13.482;2023-05-29T11:10:58;447.35;;;174.70;;
46216;SDS011;47258;59.424;13.482;2023-05-29T11:13:38;446.48;;;166.82;;
46216;SDS011;47258;59.424;13.482;2023-05-29T11:16:38;433.58;;;163.77;;
46216;SDS011;47258;59.424;13.482;2023-05-29T11:19:18;403.17;;;155.15;;
46216;SDS011;47258;59.424;13.482;2023-05-29T11:22:06;425.92;;;157.07;;
46216;SDS011;47258;59.424;13.482;2023-05-29T11:24:53;401.90;;;151.90;;
46216;SDS011;47258;59.424;13.482;2023-05-29T11:27:32;379.27;;;149.88;;
46216;SDS011;47258;59.424;13.482;2023-05-29T11:30:08;395.08;;;144.52;;
46216;SDS011;47258;59.424;13.482;2023-05-29T11:32:41;350.90;;;140.30;;
46216;SDS011;47258;59.424;13.482;2023-05-29T11:35:25;334.40;;;129.77;;
46216;SDS011;47258;59.424;13.482;2023-05-29T11:38:15;311.15;;;121.88;;
46216;SDS011;47258;59.424;13.482;2023-05-29T11:40:56;316.67;;;118.05;;
46216;SDS011;47258;59.424;13.482;2023-05-29T11:43:37;302.08;;;115.15;;
46216;SDS011;47258;59.424;13.482;2023-05-29T11:46:16;268.27;;;107.18;;
46216;SDS011;47258;59.424;13.482;2023-05-29T11:49:00;262.92;;;100.13;;
46216;SDS011;47258;59.424;13.482;2023-05-29T11:51:41;132.10;;;50.28;;
46216;SDS011;47258;59.424;13.482;2023-05-29T11:54:21;82.88;;;30.83;;
46216;SDS011;47258;59.424;13.482;2023-05-29T11:57:03;75.70;;;26.15;;
46216;SDS011;47258;59.424;13.482;2023-05-29T11:59:36;64.18;;;24.52;;
46216;SDS011;47258;59.424;13.482;2023-05-29T12:02:13;59.75;;;24.35;;
46216;SDS011;47258;59.424;13.482;2023-05-29T12:05:02;71.72;;;23.75;;
46216;SDS011;47258;59.424;13.482;2023-05-29T12:07:51;69.20;;;25.38;;
46216;SDS011;47258;59.424;13.482;2023-05-29T12:10:26;62.00;;;20.50;;
46216;SDS011;47258;59.424;13.482;2023-05-29T12:13:06;31.15;;;10.90;;
46216;SDS011;47258;59.424;13.482;2023-05-29T12:15:41;22.92;;;9.23;;
46216;SDS011;47258;59.424;13.482;2023-05-29T12:18:15;22.60;;;8.35;;
46216;SDS011;47258;59.424;13.482;2023-05-29T12:20:47;30.60;;;10.38;;
46216;SDS011;47258;59.424;13.482;2023-05-29T12:23:20;25.73;;;9.57;;
46216;SDS011;47258;59.424;13.482;2023-05-29T12:26:06;47.92;;;14.77;;
46216;SDS011;47258;59.424;13.482;2023-05-29T12:28:43;55.70;;;18.42;;
46216;SDS011;47258;59.424;13.482;2023-05-29T12:31:28;69.03;;;26.83;;
46216;SDS011;47258;59.424;13.482;2023-05-29T12:34:09;90.25;;;32.80;;
46216;SDS011;47258;59.424;13.482;2023-05-29T12:36:43;86.60;;;34.67;;
46216;SDS011;47258;59.424;13.482;2023-05-29T12:39:16;83.00;;;32.65;;
46216;SDS011;47258;59.424;13.482;2023-05-29T12:41:55;98.13;;;36.03;;
46216;SDS011;47258;59.424;13.482;2023-05-29T12:44:33;78.63;;;30.67;;
46216;SDS011;47258;59.424;13.482;2023-05-29T12:47:16;82.55;;;30.48;;
46216;SDS011;47258;59.424;13.482;2023-05-29T12:49:55;72.32;;;28.42;;
46216;SDS011;47258;59.424;13.482;2023-05-29T12:52:52;78.55;;;28.42;;
46216;SDS011;47258;59.424;13.482;2023-05-29T12:55:36;66.85;;;27.35;;
46216;SDS011;47258;59.424;13.482;2023-05-29T12:58:16;66.93;;;24.58;;
46216;SDS011;47258;59.424;13.482;2023-05-29T13:00:54;64.95;;;26.42;;
46216;SDS011;47258;59.424;13.482;2023-05-29T13:03:33;62.60;;;24.05;;
46216;SDS011;47258;59.424;13.482;2023-05-29T13:06:10;64.82;;;26.02;;
46216;SDS011;47258;59.424;13.482;2023-05-29T13:08:48;51.90;;;22.08;;
46216;SDS011;47258;59.424;13.482;2023-05-29T13:11:24;54.17;;;23.42;;
46216;SDS011;47258;59.424;13.482;2023-05-29T13:14:14;56.13;;;22.48;;
46216;SDS011;47258;59.424;13.482;2023-05-29T13:16:57;52.38;;;22.75;;
46216;SDS011;47258;59.424;13.482;2023-05-29T13:19:34;76.45;;;23.05;;
46216;SDS011;47258;59.424;13.482;2023-05-29T13:22:06;40.53;;;16.77;;
46216;SDS011;47258;59.424;13.482;2023-05-29T13:24:45;22.35;;;9.15;;
46216;SDS011;47258;59.424;13.482;2023-05-29T13:27:29;18.75;;;6.75;;
46216;SDS011;47258;59.424;13.482;2023-05-29T13:30:10;35.88;;;6.40;;
46216;SDS011;47258;59.424;13.482;2023-05-29T13:32:49;14.43;;;5.22;;
46216;SDS011;47258;59.424;13.482;2023-05-29T13:35:29;11.55;;;4.32;;
46216;SDS011;47258;59.424;13.482;2023-05-29T13:38:07;7.10;;;3.22;;
46216;SDS011;47258;59.424;13.482;2023-05-29T13:40:46;6.90;;;2.47;;
46216;SDS011;47258;59.424;13.482;2023-05-29T13:43:25;7.00;;;2.92;;
46216;SDS011;47258;59.424;13.482;2023-05-29T13:46:02;9.60;;;3.00;;
46216;SDS011;47258;59.424;13.482;2023-05-29T13:48:36;4.32;;;1.88;;
46216;SDS011;47258;59.424;13.482;2023-05-29T13:51:21;4.35;;;2.30;;
46216;SDS011;47258;59.424;13.482;2023-05-29T13:53:59;5.18;;;1.50;;
46216;SDS011;47258;59.424;13.482;2023-05-29T13:56:33;9.25;;;2.22;;
46216;SDS011;47258;59.424;13.482;2023-05-29T13:59:06;4.00;;;1.98;;
46216;SDS011;47258;59.424;13.482;2023-05-29T14:01:50;5.57;;;1.52;;
46216;SDS011;47258;59.424;13.482;2023-05-29T14:04:26;6.47;;;1.40;;
46216;SDS011;47258;59.424;13.482;2023-05-29T14:07:06;2.22;;;1.30;;
46216;SDS011;47258;59.424;13.482;2023-05-29T14:09:45;2.80;;;1.33;;
46216;SDS011;47258;59.424;13.482;2023-05-29T14:12:16;5.50;;;1.58;;
46216;SDS011;47258;59.424;13.482;2023-05-29T14:14:50;2.00;;;0.90;;
46216;SDS011;47258;59.424;13.482;2023-05-29T14:17:33;5.75;;;1.23;;
46216;SDS011;47258;59.424;13.482;2023-05-29T14:20:04;2.00;;;1.45;;
46216;SDS011;47258;59.424;13.482;2023-05-29T14:22:35;1.60;;;1.35;;
46216;SDS011;47258;59.424;13.482;2023-05-29T14:25:06;2.65;;;1.08;;
46216;SDS011;47258;59.424;13.482;2023-05-29T14:27:42;2.33;;;0.82;;
46216;SDS011;47258;59.424;13.482;2023-05-29T14:30:12;3.75;;;1.50;;
46216;SDS011;47258;59.424;13.482;2023-05-29T14:32:46;1.45;;;0.80;;
46216;SDS011;47258;59.424;13.482;2023-05-29T14:35:18;4.82;;;1.90;;
46216;SDS011;47258;59.424;13.482;2023-05-29T14:37:54;3.55;;;1.15;;
46216;SDS011;47258;59.424;13.482;2023-05-29T14:40:31;2.33;;;1.55;;
46216;SDS011;47258;59.424;13.482;2023-05-29T14:43:03;5.00;;;1.27;;
46216;SDS011;47258;59.424;13.482;2023-05-29T14:45:35;2.15;;;1.05;;
46216;SDS011;47258;59.424;13.482;2023-05-29T14:48:08;3.88;;;1.67;;
46216;SDS011;47258;59.424;13.482;2023-05-29T14:50:45;5.82;;;1.08;;
46216;SDS011;47258;59.424;13.482;2023-05-29T14:53:21;3.08;;;1.60;;
46216;SDS011;47258;59.424;13.482;2023-05-29T14:55:54;4.90;;;1.45;;
46216;SDS011;47258;59.424;13.482;2023-05-29T14:58:31;3.40;;;1.52;;
46216;SDS011;47258;59.424;13.482;2023-05-29T15:01:05;5.65;;;1.35;;
46216;SDS011;47258;59.424;13.482;2023-05-29T15:03:51;4.45;;;1.58;;
46216;SDS011;47258;59.424;13.482;2023-05-29T15:06:30;2.05;;;0.93;;
46216;SDS011;47258;59.424;13.482;2023-05-29T15:09:04;2.53;;;1.50;;